Czestochowa, Poland
Current Conditions -  °F | °C
As of 11:00 AM on Saturday 22 Nov 2014 (Local Time) from EPKT Reporting Station
Haze Haze  
Wind Chill: 33°   Ceiling: 700
Heat Index: 37°   Visibility: 1.8mi
Dew Point: 36°   Wind: 6mph
Humidity: 93%   Direction: 80°E
Pressure: 30.33"   Gusts: NA
Location:  50.81°N, 19.13°E
Report Text: EPKT 220900Z 08005KT 3000 BR SCT005 BKN007 03/02 Q1027
Loading
Personal Weather Stations






























Interactive Weather Map New forecast layout! Learn more

10-Day Weather Forecast

Advertisements
Track Severe Weather on mobile